Time;durP1;ratioP1;P1;durP2;ratioP2;P2;SDS_P1;SDS_P2;PMS_P1;PMS_P2;Temp;Humidity;BMP_temperature;BMP_pressure;BME280_temperature;BME280_humidity;BME280_pressure;Samples;Min_cycle;Max_cycle;Signal;HPM_P1;HPM_P2
2022/12/17 13:09:35;;;;;;;;;;;;;;;18.29;26.63;96295.59;10481108;28;1892;-54
2022/12/17 13:14:55;;;;;;;;;;;;;;;18.26;26.71;96296.09;10484961;28;1937;-53
2022/12/17 13:19:55;;;;;;;;;;;;;;;18.21;26.74;96296.03;10504263;28;1883;-51
2022/12/17 13:24:56;;;;;;;;;;;;;;;18.19;27.06;96300.72;10489095;28;2416;-54
2022/12/17 13:29:58;;;;;;;;;;;;;;;18.20;27.07;96316.22;10480862;28;2005;-52
2022/12/17 13:34:58;;;;;;;;;;;;;;;18.19;26.94;96312.03;10490201;28;1948;-51
2022/12/17 13:40:02;;;;;;;;;;;;;;;18.15;26.89;96315.38;10494088;28;2037;-51
2022/12/17 13:45:03;;;;;;;;;;;;;;;18.17;26.98;96318.56;10485981;28;1914;-52
2022/12/17 13:50:17;;;;;;;;;;;;;;;18.16;27.02;96330.06;10478292;28;2137;-53
2022/12/17 13:55:21;;;;;;;;;;;;;;;18.15;27.06;96333.75;10493722;28;1957;-52
2022/12/17 14:00:23;;;;;;;;;;;;;;;18.16;27.10;96335.31;10492581;28;1458;-52
2022/12/17 14:05:25;;;;;;;;;;;;;;;18.15;26.97;96349.50;10494453;28;1971;-51
2022/12/17 14:10:25;;;;;;;;;;;;;;;18.25;26.75;96360.09;10487764;28;1566;-49
2022/12/17 14:15:27;;;;;;;;;;;;;;;18.25;26.94;96358.28;10483356;28;1956;-52
2022/12/17 14:20:31;;;;;;;;;;;;;;;18.22;26.99;96365.81;10487504;28;1942;-55
2022/12/17 14:25:35;;;;;;;;;;;;;;;18.25;26.88;96365.34;10490867;28;1905;-53
2022/12/17 14:30:35;;;;;;;;;;;;;;;18.27;26.75;96371.16;10484814;28;2107;-54
2022/12/17 14:35:38;;;;;;;;;;;;;;;18.24;26.81;96366.38;10485973;28;1977;-52
2022/12/17 14:40:38;;;;;;;;;;;;;;;18.25;26.52;96379.28;10486426;28;1905;-54
2022/12/17 14:46:19;;;;;;;;;;;;;;;18.26;26.49;96385.31;10488875;28;1914;-54
2022/12/17 14:51:01;;;;;;;;;;;;;;;18.25;26.52;96379.28;10487245;28;1429;-54
2022/12/17 14:56:02;;;;;;;;;;;;;;;18.27;26.25;96382.44;10493323;28;1352;-53
2022/12/17 15:01:06;;;;;;;;;;;;;;;18.24;26.37;96390.78;10487478;28;2001;-51
2022/12/17 15:06:07;;;;;;;;;;;;;;;18.25;26.31;96400.28;10470792;28;1958;-53
2022/12/17 15:11:13;;;;;;;;;;;;;;;18.26;26.27;96399.22;10476810;28;1918;-54
2022/12/17 15:16:13;;;;;;;;;;;;;;;18.22;26.29;96405.19;10477190;28;2039;-54
2022/12/17 15:21:13;;;;;;;;;;;;;;;18.27;26.25;96405.25;10474553;28;1983;-56
2022/12/17 15:26:14;;;;;;;;;;;;;;;18.23;26.24;96422.53;10488600;28;1966;-54
2022/12/17 15:31:14;;;;;;;;;;;;;;;18.24;26.09;96424.09;10475010;28;2086;-55
2022/12/17 15:36:15;;;;;;;;;;;;;;;18.22;26.21;96426.97;10495838;28;1977;-56
2022/12/17 15:46:35;;;;;;;;;;;;;;;18.24;26.06;96432.78;10497427;28;1999;-54
2022/12/17 15:51:35;;;;;;;;;;;;;;;18.27;26.28;96439.38;10458640;28;1966;-56
2022/12/17 15:56:36;;;;;;;;;;;;;;;18.33;26.20;96435.78;10488841;28;2016;-51
2022/12/17 16:01:36;;;;;;;;;;;;;;;18.40;26.13;96425.91;10461568;28;1966;-52
2022/12/17 16:06:36;;;;;;;;;;;;;;;18.44;26.06;96429.69;10474605;28;1981;-55
2022/12/17 16:11:36;;;;;;;;;;;;;;;18.45;26.04;96437.31;10473103;28;2043;-52
2022/12/17 16:16:37;;;;;;;;;;;;;;;18.49;26.00;96442.84;10470291;28;2123;-52
2022/12/17 16:21:37;;;;;;;;;;;;;;;18.50;25.89;96441.81;10478415;28;2074;-55
2022/12/17 16:26:37;;;;;;;;;;;;;;;18.52;25.48;96443.19;10473686;28;2049;-56
2022/12/17 16:31:37;;;;;;;;;;;;;;;18.55;25.85;96442.69;10491548;28;1898;-54
2022/12/17 16:36:38;;;;;;;;;;;;;;;18.66;26.00;96433.09;10474121;28;1980;-59
2022/12/17 16:41:38;;;;;;;;;;;;;;;18.72;25.76;96447.06;10480782;28;1984;-60
2022/12/17 16:46:39;;;;;;;;;;;;;;;18.80;25.95;96455.31;10483460;28;1967;-53
2022/12/17 16:51:39;;;;;;;;;;;;;;;18.79;25.56;96452.94;10469791;28;2031;-59
2022/12/17 16:56:40;;;;;;;;;;;;;;;18.81;25.18;96451.66;10469398;28;2009;-60
2022/12/17 17:01:43;;;;;;;;;;;;;;;18.89;25.35;96448.59;10475230;28;1897;-53
2022/12/17 17:06:44;;;;;;;;;;;;;;;18.79;25.14;96451.13;10473438;28;1965;-52
2022/12/17 17:11:45;;;;;;;;;;;;;;;18.76;24.95;96458.69;10472334;28;1981;-54
2022/12/17 17:16:45;;;;;;;;;;;;;;;18.76;25.10;96469.19;10466286;28;1976;-53
2022/12/17 17:21:50;;;;;;;;;;;;;;;18.88;25.71;96460.13;10474500;28;2087;-55
2022/12/17 17:26:51;;;;;;;;;;;;;;;18.95;25.65;96468.63;10455297;28;1977;-55
2022/12/17 17:31:52;;;;;;;;;;;;;;;19.05;26.15;96474.00;10487217;28;1500;-53
2022/12/17 17:36:52;;;;;;;;;;;;;;;19.15;26.74;96479.38;10488121;28;1815;-54
2022/12/17 17:41:52;;;;;;;;;;;;;;;19.25;26.80;96484.72;10477349;28;1502;-51
2022/12/17 17:46:52;;;;;;;;;;;;;;;19.31;28.41;96489.00;10492266;28;1898;-54
2022/12/17 17:51:53;;;;;;;;;;;;;;;19.49;27.98;96486.03;10486442;28;1937;-54
2022/12/17 17:56:53;;;;;;;;;;;;;;;19.57;27.36;96490.09;10492888;28;1713;-52
2022/12/17 18:01:53;;;;;;;;;;;;;;;19.49;26.21;96491.31;10483672;28;1594;-51
2022/12/17 18:06:54;;;;;;;;;;;;;;;19.52;26.18;96497.09;10495273;28;1914;-54
2022/12/17 18:11:54;;;;;;;;;;;;;;;19.57;25.85;96495.34;10490076;28;1501;-56
2022/12/17 18:16:54;;;;;;;;;;;;;;;19.63;25.59;96506.69;10485205;28;1285;-56
2022/12/17 18:21:54;;;;;;;;;;;;;;;19.68;25.50;96509.38;10486615;28;1972;-56
2022/12/17 18:26:55;;;;;;;;;;;;;;;19.75;25.43;96509.94;10466795;28;2150;-54
2022/12/17 18:32:05;;;;;;;;;;;;;;;19.84;26.14;96511.09;10478126;28;2254;-54
2022/12/17 18:37:06;;;;;;;;;;;;;;;19.95;27.41;96523.28;10496768;28;2235;-60
2022/12/17 18:47:26;;;;;;;;;;;;;;;19.95;25.46;96520.66;10490840;28;1649;-60
2022/12/17 18:52:28;;;;;;;;;;;;;;;20.04;25.68;96530.47;10482191;28;1795;-56
2022/12/17 18:57:30;;;;;;;;;;;;;;;20.14;25.84;96527.13;10485976;28;1831;-59
2022/12/17 19:02:34;;;;;;;;;;;;;;;20.12;26.94;96535.28;10487239;28;1910;-53
2022/12/17 19:07:36;;;;;;;;;;;;;;;20.12;25.82;96542.38;10479348;28;2168;-53
2022/12/17 19:12:36;;;;;;;;;;;;;;;20.14;25.67;96540.28;10487642;28;1738;-50
2022/12/17 19:17:36;;;;;;;;;;;;;;;20.15;25.61;96540.03;10481076;28;1783;-48
2022/12/17 19:22:37;;;;;;;;;;;;;;;20.18;25.56;96536.09;10473645;28;2200;-52
2022/12/17 19:27:37;;;;;;;;;;;;;;;20.19;25.60;96538.53;10484986;28;1761;-52
2022/12/17 19:32:38;;;;;;;;;;;;;;;20.21;26.04;96540.91;10484785;28;2033;-52
2022/12/17 19:37:38;;;;;;;;;;;;;;;20.25;27.12;96548.06;10484525;28;1855;-51
2022/12/17 19:42:38;;;;;;;;;;;;;;;20.26;27.25;96548.81;10487233;28;1970;-54
2022/12/17 19:47:38;;;;;;;;;;;;;;;20.25;27.39;96552.53;10487644;28;1787;-54
2022/12/17 19:52:39;;;;;;;;;;;;;;;20.17;27.55;96568.75;10486854;28;1774;-54
2022/12/17 19:57:39;;;;;;;;;;;;;;;20.14;27.58;96567.41;10483141;28;1738;-50
2022/12/17 20:02:40;;;;;;;;;;;;;;;20.19;27.20;96559.59;10483728;28;1914;-52
2022/12/17 20:07:40;;;;;;;;;;;;;;;20.24;27.21;96571.97;10486785;28;1883;-51
2022/12/17 20:12:41;;;;;;;;;;;;;;;20.30;27.18;96563.06;10468611;28;1848;-47
2022/12/17 20:17:42;;;;;;;;;;;;;;;20.33;26.76;96575.75;10484218;28;1798;-53
2022/12/17 20:22:42;;;;;;;;;;;;;;;20.36;26.51;96569.97;10485265;28;1917;-51
2022/12/17 20:27:43;;;;;;;;;;;;;;;20.40;26.76;96571.06;10487026;28;1749;-50
2022/12/17 20:32:44;;;;;;;;;;;;;;;20.31;26.75;96580.47;10477176;28;1988;-54
2022/12/17 20:37:45;;;;;;;;;;;;;;;20.20;26.34;96584.06;10483451;28;1886;-52
2022/12/17 20:42:45;;;;;;;;;;;;;;;20.14;26.30;96585.03;10483381;28;2148;-51
2022/12/17 20:47:45;;;;;;;;;;;;;;;20.07;26.37;96577.34;10478458;28;1928;-51
2022/12/17 20:52:45;;;;;;;;;;;;;;;20.03;26.06;96581.50;10474743;28;1964;-51
2022/12/17 20:57:46;;;;;;;;;;;;;;;20.01;26.21;96590.72;10476930;28;1995;-51
2022/12/17 21:02:47;;;;;;;;;;;;;;;19.97;26.13;96587.78;10477376;28;1971;-50
2022/12/17 21:07:48;;;;;;;;;;;;;;;19.94;26.02;96582.22;10479725;28;1905;-49
2022/12/17 21:18:07;;;;;;;;;;;;;;;19.89;26.10;96582.16;10474618;28;1992;-52
2022/12/17 21:23:07;;;;;;;;;;;;;;;19.87;26.56;96581.63;10484140;28;1949;-51
2022/12/17 21:28:08;;;;;;;;;;;;;;;19.88;26.25;96585.84;10480964;28;2115;-49
2022/12/17 21:33:08;;;;;;;;;;;;;;;19.88;26.81;96596.38;10483064;28;2064;-50
2022/12/17 21:38:08;;;;;;;;;;;;;;;19.85;26.96;96584.50;10489852;28;1943;-50
2022/12/17 21:43:08;;;;;;;;;;;;;;;19.83;27.06;96591.06;10487638;28;1979;-49
2022/12/17 21:48:09;;;;;;;;;;;;;;;19.81;27.01;96590.50;10511236;28;1894;-49
2022/12/17 21:53:10;;;;;;;;;;;;;;;19.78;27.00;96594.44;10493138;28;2036;-48
2022/12/17 21:58:10;;;;;;;;;;;;;;;19.77;27.23;96597.31;10490318;28;1910;-48
2022/12/17 22:03:11;;;;;;;;;;;;;;;19.74;27.07;96603.09;10486445;28;2083;-48
2022/12/17 22:08:11;;;;;;;;;;;;;;;19.73;27.12;96612.00;10487285;28;1889;-50
2022/12/17 22:18:30;;;;;;;;;;;;;;;19.69;27.30;96597.75;10483701;28;1786;-51
2022/12/17 22:23:31;;;;;;;;;;;;;;;19.65;27.29;96594.84;10480622;28;2284;-54
2022/12/17 22:28:32;;;;;;;;;;;;;;;19.62;27.18;96589.28;10480962;28;1973;-54
2022/12/17 22:33:32;;;;;;;;;;;;;;;19.60;27.38;96599.25;10487159;28;1957;-53
2022/12/17 22:38:33;;;;;;;;;;;;;;;19.59;27.24;96600.28;10478261;28;1941;-52
2022/12/17 22:43:33;;;;;;;;;;;;;;;19.56;27.06;96616.56;10467391;28;1968;-53
2022/12/17 22:48:34;;;;;;;;;;;;;;;19.54;27.21;96621.28;10486284;28;2020;-49
2022/12/17 22:53:35;;;;;;;;;;;;;;;19.52;27.20;96631.22;10466192;28;2015;-50
2022/12/17 22:58:38;;;;;;;;;;;;;;;19.49;27.27;96617.53;10484250;28;2060;-48
2022/12/17 23:03:39;;;;;;;;;;;;;;;19.47;27.29;96618.81;10479722;28;1972;-51
2022/12/17 23:08:40;;;;;;;;;;;;;;;19.44;27.30;96619.31;10482845;28;1905;-49
2022/12/17 23:13:51;;;;;;;;;;;;;;;19.42;27.29;96616.94;10460292;28;2035;-52
2022/12/17 23:18:52;;;;;;;;;;;;;;;19.41;27.40;96615.31;10481214;28;1937;-53
2022/12/17 23:23:52;;;;;;;;;;;;;;;19.38;27.25;96622.91;10475082;28;1952;-49
2022/12/17 23:28:53;;;;;;;;;;;;;;;19.37;27.32;96622.13;10480008;28;1981;-54
2022/12/17 23:33:54;;;;;;;;;;;;;;;19.35;27.38;96613.69;10479806;28;1928;-50
2022/12/17 23:38:57;;;;;;;;;;;;;;;19.33;27.30;96626.28;10480462;28;2064;-54
2022/12/17 23:43:57;;;;;;;;;;;;;;;19.31;27.26;96615.19;10472162;28;2039;-52
2022/12/17 23:48:58;;;;;;;;;;;;;;;19.29;27.27;96633.03;10479311;28;1909;-52
2022/12/17 23:53:58;;;;;;;;;;;;;;;19.25;27.29;96626.66;10480380;28;1893;-50
2022/12/17 23:58:59;;;;;;;;;;;;;;;19.25;27.09;96623.22;10482682;28;1937;-53
